sensor_id;sensor_type;location;lat;lon;timestamp;temperature;humidity
6357;DHT22;3211;53.452;-2.264;2023-09-12T00:00:27;16.80;99.90
6357;DHT22;3211;53.452;-2.264;2023-09-12T00:03:10;16.80;99.90
6357;DHT22;3211;53.452;-2.264;2023-09-12T00:05:53;16.80;99.90
6357;DHT22;3211;53.452;-2.264;2023-09-12T00:08:35;16.80;99.90
6357;DHT22;3211;53.452;-2.264;2023-09-12T00:11:17;16.80;99.90
6357;DHT22;3211;53.452;-2.264;2023-09-12T00:13:59;16.80;99.90
6357;DHT22;3211;53.452;-2.264;2023-09-12T00:16:41;16.80;99.90
6357;DHT22;3211;53.452;-2.264;2023-09-12T00:19:24;16.80;99.90
6357;DHT22;3211;53.452;-2.264;2023-09-12T00:22:06;16.80;99.90
6357;DHT22;3211;53.452;-2.264;2023-09-12T00:24:48;16.80;99.90
6357;DHT22;3211;53.452;-2.264;2023-09-12T00:27:30;16.90;99.90
6357;DHT22;3211;53.452;-2.264;2023-09-12T00:30:14;16.90;99.90
6357;DHT22;3211;53.452;-2.264;2023-09-12T00:32:56;16.90;99.90
6357;DHT22;3211;53.452;-2.264;2023-09-12T00:35:39;16.90;99.90
6357;DHT22;3211;53.452;-2.264;2023-09-12T00:38:21;16.90;99.90
6357;DHT22;3211;53.452;-2.264;2023-09-12T00:41:03;16.90;99.90
6357;DHT22;3211;53.452;-2.264;2023-09-12T00:43:45;16.90;99.90
6357;DHT22;3211;53.452;-2.264;2023-09-12T00:46:27;16.90;99.90
6357;DHT22;3211;53.452;-2.264;2023-09-12T00:49:10;16.90;99.90
6357;DHT22;3211;53.452;-2.264;2023-09-12T00:51:55;16.80;99.90
6357;DHT22;3211;53.452;-2.264;2023-09-12T00:54:41;16.80;99.90
6357;DHT22;3211;53.452;-2.264;2023-09-12T00:57:28;17.00;99.90
6357;DHT22;3211;53.452;-2.264;2023-09-12T01:00:13;16.90;99.90
6357;DHT22;3211;53.452;-2.264;2023-09-12T01:02:55;16.90;99.90
6357;DHT22;3211;53.452;-2.264;2023-09-12T01:05:37;16.90;99.90
6357;DHT22;3211;53.452;-2.264;2023-09-12T01:08:20;16.90;99.90
6357;DHT22;3211;53.452;-2.264;2023-09-12T01:11:02;16.90;99.90
6357;DHT22;3211;53.452;-2.264;2023-09-12T01:13:45;16.90;99.90
6357;DHT22;3211;53.452;-2.264;2023-09-12T01:16:27;16.90;99.90
6357;DHT22;3211;53.452;-2.264;2023-09-12T01:19:11;16.80;99.90
6357;DHT22;3211;53.452;-2.264;2023-09-12T01:22:22;16.90;99.90
6357;DHT22;3211;53.452;-2.264;2023-09-12T01:25:31;17.00;99.90
6357;DHT22;3211;53.452;-2.264;2023-09-12T01:28:17;16.90;99.90
6357;DHT22;3211;53.452;-2.264;2023-09-12T01:31:01;16.90;99.90
6357;DHT22;3211;53.452;-2.264;2023-09-12T01:33:43;16.80;99.90
6357;DHT22;3211;53.452;-2.264;2023-09-12T01:36:25;16.80;99.90
6357;DHT22;3211;53.452;-2.264;2023-09-12T01:39:07;16.80;99.90
6357;DHT22;3211;53.452;-2.264;2023-09-12T01:41:50;16.80;99.90
6357;DHT22;3211;53.452;-2.264;2023-09-12T01:44:35;16.90;99.90
6357;DHT22;3211;53.452;-2.264;2023-09-12T01:47:18;16.90;99.90
6357;DHT22;3211;53.452;-2.264;2023-09-12T01:50:02;17.00;99.90
6357;DHT22;3211;53.452;-2.264;2023-09-12T01:52:45;16.90;99.90
6357;DHT22;3211;53.452;-2.264;2023-09-12T01:55:27;17.00;99.90
6357;DHT22;3211;53.452;-2.264;2023-09-12T01:58:09;17.00;99.90
6357;DHT22;3211;53.452;-2.264;2023-09-12T02:00:53;17.10;99.90
6357;DHT22;3211;53.452;-2.264;2023-09-12T02:03:36;16.90;99.90
6357;DHT22;3211;53.452;-2.264;2023-09-12T02:06:17;16.80;99.90
6357;DHT22;3211;53.452;-2.264;2023-09-12T02:08:59;16.90;99.90
6357;DHT22;3211;53.452;-2.264;2023-09-12T02:11:41;17.00;99.90
6357;DHT22;3211;53.452;-2.264;2023-09-12T02:14:23;17.00;99.90
6357;DHT22;3211;53.452;-2.264;2023-09-12T02:17:06;16.90;99.90
6357;DHT22;3211;53.452;-2.264;2023-09-12T02:19:49;17.00;99.90
6357;DHT22;3211;53.452;-2.264;2023-09-12T02:22:31;16.90;99.90
6357;DHT22;3211;53.452;-2.264;2023-09-12T02:25:13;17.00;99.90
6357;DHT22;3211;53.452;-2.264;2023-09-12T02:27:54;16.90;99.90
6357;DHT22;3211;53.452;-2.264;2023-09-12T02:30:38;16.90;99.90
6357;DHT22;3211;53.452;-2.264;2023-09-12T02:33:22;16.90;99.90
6357;DHT22;3211;53.452;-2.264;2023-09-12T02:36:04;16.90;99.90
6357;DHT22;3211;53.452;-2.264;2023-09-12T02:38:46;16.90;99.90
6357;DHT22;3211;53.452;-2.264;2023-09-12T02:41:28;16.90;99.90
6357;DHT22;3211;53.452;-2.264;2023-09-12T02:44:10;16.90;99.90
6357;DHT22;3211;53.452;-2.264;2023-09-12T02:46:52;16.90;99.90
6357;DHT22;3211;53.452;-2.264;2023-09-12T02:49:35;16.90;99.90
6357;DHT22;3211;53.452;-2.264;2023-09-12T02:52:17;16.80;99.90
6357;DHT22;3211;53.452;-2.264;2023-09-12T02:54:59;16.50;99.90
6357;DHT22;3211;53.452;-2.264;2023-09-12T02:57:41;16.40;99.90
6357;DHT22;3211;53.452;-2.264;2023-09-12T03:00:23;16.50;99.90
6357;DHT22;3211;53.452;-2.264;2023-09-12T03:03:05;16.40;99.90
6357;DHT22;3211;53.452;-2.264;2023-09-12T03:05:57;16.30;99.90
6357;DHT22;3211;53.452;-2.264;2023-09-12T03:08:39;16.20;99.90
6357;DHT22;3211;53.452;-2.264;2023-09-12T03:11:21;16.20;99.90
6357;DHT22;3211;53.452;-2.264;2023-09-12T03:14:03;16.20;99.90
6357;DHT22;3211;53.452;-2.264;2023-09-12T03:16:45;16.20;99.90
6357;DHT22;3211;53.452;-2.264;2023-09-12T03:19:27;16.10;99.90
6357;DHT22;3211;53.452;-2.264;2023-09-12T03:22:12;16.10;99.90
6357;DHT22;3211;53.452;-2.264;2023-09-12T03:24:54;16.10;99.90
6357;DHT22;3211;53.452;-2.264;2023-09-12T03:27:36;16.10;99.90
6357;DHT22;3211;53.452;-2.264;2023-09-12T03:30:20;16.10;99.90
6357;DHT22;3211;53.452;-2.264;2023-09-12T03:33:02;16.10;99.90
6357;DHT22;3211;53.452;-2.264;2023-09-12T03:35:44;16.20;99.90
6357;DHT22;3211;53.452;-2.264;2023-09-12T03:38:27;16.10;99.90
6357;DHT22;3211;53.452;-2.264;2023-09-12T03:41:09;16.00;99.90
6357;DHT22;3211;53.452;-2.264;2023-09-12T03:43:53;16.00;99.90
6357;DHT22;3211;53.452;-2.264;2023-09-12T03:46:35;16.10;99.90
6357;DHT22;3211;53.452;-2.264;2023-09-12T03:49:17;16.10;99.90
6357;DHT22;3211;53.452;-2.264;2023-09-12T03:51:59;16.10;99.90
6357;DHT22;3211;53.452;-2.264;2023-09-12T03:54:42;16.00;99.90
6357;DHT22;3211;53.452;-2.264;2023-09-12T03:57:24;16.00;99.90
6357;DHT22;3211;53.452;-2.264;2023-09-12T04:00:07;16.10;99.90
6357;DHT22;3211;53.452;-2.264;2023-09-12T04:02:49;16.10;99.90
6357;DHT22;3211;53.452;-2.264;2023-09-12T04:05:31;16.10;99.90
6357;DHT22;3211;53.452;-2.264;2023-09-12T04:08:13;16.00;99.90
6357;DHT22;3211;53.452;-2.264;2023-09-12T04:10:56;15.90;99.90
6357;DHT22;3211;53.452;-2.264;2023-09-12T04:13:38;15.90;99.90
6357;DHT22;3211;53.452;-2.264;2023-09-12T04:16:20;15.90;99.90
6357;DHT22;3211;53.452;-2.264;2023-09-12T04:19:03;15.80;99.90
6357;DHT22;3211;53.452;-2.264;2023-09-12T04:21:44;15.80;99.90
6357;DHT22;3211;53.452;-2.264;2023-09-12T04:24:26;15.80;99.90
6357;DHT22;3211;53.452;-2.264;2023-09-12T04:27:10;15.70;99.90
6357;DHT22;3211;53.452;-2.264;2023-09-12T04:29:51;15.70;99.90
6357;DHT22;3211;53.452;-2.264;2023-09-12T04:32:33;15.60;99.90
6357;DHT22;3211;53.452;-2.264;2023-09-12T04:35:16;15.70;99.90
6357;DHT22;3211;53.452;-2.264;2023-09-12T04:37:59;15.70;99.90
6357;DHT22;3211;53.452;-2.264;2023-09-12T04:40:41;15.50;99.90
6357;DHT22;3211;53.452;-2.264;2023-09-12T04:43:25;15.60;99.90
6357;DHT22;3211;53.452;-2.264;2023-09-12T04:46:06;15.60;99.90
6357;DHT22;3211;53.452;-2.264;2023-09-12T04:48:48;15.60;99.90
6357;DHT22;3211;53.452;-2.264;2023-09-12T04:51:30;15.60;99.90
6357;DHT22;3211;53.452;-2.264;2023-09-12T04:54:12;15.50;99.90
6357;DHT22;3211;53.452;-2.264;2023-09-12T04:56:54;15.40;99.90
6357;DHT22;3211;53.452;-2.264;2023-09-12T04:59:37;15.40;99.90
6357;DHT22;3211;53.452;-2.264;2023-09-12T05:02:19;15.40;99.90
6357;DHT22;3211;53.452;-2.264;2023-09-12T05:05:01;15.40;99.90
6357;DHT22;3211;53.452;-2.264;2023-09-12T05:07:44;15.40;99.90
6357;DHT22;3211;53.452;-2.264;2023-09-12T05:10:26;15.20;99.90
6357;DHT22;3211;53.452;-2.264;2023-09-12T05:13:08;15.10;99.90
6357;DHT22;3211;53.452;-2.264;2023-09-12T05:15:51;15.10;99.90
6357;DHT22;3211;53.452;-2.264;2023-09-12T05:18:33;15.10;99.90
6357;DHT22;3211;53.452;-2.264;2023-09-12T05:21:15;15.10;99.90
6357;DHT22;3211;53.452;-2.264;2023-09-12T05:23:57;15.10;99.90
6357;DHT22;3211;53.452;-2.264;2023-09-12T05:26:39;15.10;99.90
6357;DHT22;3211;53.452;-2.264;2023-09-12T05:29:21;15.10;99.90
6357;DHT22;3211;53.452;-2.264;2023-09-12T05:32:05;15.20;99.90
6357;DHT22;3211;53.452;-2.264;2023-09-12T05:34:47;15.10;99.90
6357;DHT22;3211;53.452;-2.264;2023-09-12T05:37:30;15.20;99.90
6357;DHT22;3211;53.452;-2.264;2023-09-12T05:40:12;15.20;99.90
6357;DHT22;3211;53.452;-2.264;2023-09-12T05:42:54;15.10;99.90
6357;DHT22;3211;53.452;-2.264;2023-09-12T05:45:36;15.10;99.90
6357;DHT22;3211;53.452;-2.264;2023-09-12T05:48:19;15.10;99.90
6357;DHT22;3211;53.452;-2.264;2023-09-12T05:51:01;15.10;99.90
6357;DHT22;3211;53.452;-2.264;2023-09-12T05:53:44;15.20;99.90
6357;DHT22;3211;53.452;-2.264;2023-09-12T05:56:26;15.20;99.90
6357;DHT22;3211;53.452;-2.264;2023-09-12T05:59:08;15.20;99.90
6357;DHT22;3211;53.452;-2.264;2023-09-12T06:01:50;15.20;99.90
6357;DHT22;3211;53.452;-2.264;2023-09-12T06:04:34;15.20;99.90
6357;DHT22;3211;53.452;-2.264;2023-09-12T06:07:16;15.20;99.90
6357;DHT22;3211;53.452;-2.264;2023-09-12T06:09:58;15.10;99.90
6357;DHT22;3211;53.452;-2.264;2023-09-12T06:12:40;15.20;99.90
6357;DHT22;3211;53.452;-2.264;2023-09-12T06:15:22;15.20;99.90
6357;DHT22;3211;53.452;-2.264;2023-09-12T06:18:04;15.30;99.90
6357;DHT22;3211;53.452;-2.264;2023-09-12T06:20:47;15.40;99.90
6357;DHT22;3211;53.452;-2.264;2023-09-12T06:23:30;15.30;99.90
6357;DHT22;3211;53.452;-2.264;2023-09-12T06:26:12;15.30;99.90
6357;DHT22;3211;53.452;-2.264;2023-09-12T06:28:54;15.30;99.90
6357;DHT22;3211;53.452;-2.264;2023-09-12T06:31:36;15.20;99.90
6357;DHT22;3211;53.452;-2.264;2023-09-12T06:34:18;15.20;99.90
6357;DHT22;3211;53.452;-2.264;2023-09-12T06:37:01;15.20;99.90
6357;DHT22;3211;53.452;-2.264;2023-09-12T06:39:43;15.20;99.90
6357;DHT22;3211;53.452;-2.264;2023-09-12T06:42:25;15.20;99.90
6357;DHT22;3211;53.452;-2.264;2023-09-12T06:45:08;15.20;99.90
6357;DHT22;3211;53.452;-2.264;2023-09-12T06:47:50;15.10;99.90
6357;DHT22;3211;53.452;-2.264;2023-09-12T06:50:32;15.20;99.90
6357;DHT22;3211;53.452;-2.264;2023-09-12T06:53:16;15.20;99.90
6357;DHT22;3211;53.452;-2.264;2023-09-12T06:55:58;15.30;99.90
6357;DHT22;3211;53.452;-2.264;2023-09-12T06:58:40;15.30;99.90
6357;DHT22;3211;53.452;-2.264;2023-09-12T07:01:23;15.30;99.90
6357;DHT22;3211;53.452;-2.264;2023-09-12T07:04:05;15.30;99.90
6357;DHT22;3211;53.452;-2.264;2023-09-12T07:06:47;15.40;99.90
6357;DHT22;3211;53.452;-2.264;2023-09-12T07:09:30;15.40;99.90
6357;DHT22;3211;53.452;-2.264;2023-09-12T07:12:12;15.30;99.90
6357;DHT22;3211;53.452;-2.264;2023-09-12T07:14:54;15.40;99.90
6357;DHT22;3211;53.452;-2.264;2023-09-12T07:17:36;15.40;99.90
6357;DHT22;3211;53.452;-2.264;2023-09-12T07:20:18;15.40;99.90
6357;DHT22;3211;53.452;-2.264;2023-09-12T07:23:00;15.40;99.90
6357;DHT22;3211;53.452;-2.264;2023-09-12T07:25:44;15.50;99.90
6357;DHT22;3211;53.452;-2.264;2023-09-12T07:28:26;15.50;99.90
6357;DHT22;3211;53.452;-2.264;2023-09-12T07:31:08;15.50;99.90
6357;DHT22;3211;53.452;-2.264;2023-09-12T07:33:50;15.60;99.90
6357;DHT22;3211;53.452;-2.264;2023-09-12T07:36:32;15.60;99.90
6357;DHT22;3211;53.452;-2.264;2023-09-12T07:39:14;15.70;99.90
6357;DHT22;3211;53.452;-2.264;2023-09-12T07:41:58;15.70;99.90
6357;DHT22;3211;53.452;-2.264;2023-09-12T07:44:40;15.70;99.90
6357;DHT22;3211;53.452;-2.264;2023-09-12T07:47:22;15.60;99.90
6357;DHT22;3211;53.452;-2.264;2023-09-12T07:50:04;15.70;99.90
6357;DHT22;3211;53.452;-2.264;2023-09-12T07:52:47;15.60;99.90
6357;DHT22;3211;53.452;-2.264;2023-09-12T07:55:29;15.60;99.90
6357;DHT22;3211;53.452;-2.264;2023-09-12T07:58:18;15.70;99.90
6357;DHT22;3211;53.452;-2.264;2023-09-12T08:01:04;15.70;99.90
6357;DHT22;3211;53.452;-2.264;2023-09-12T08:03:46;15.70;99.90
6357;DHT22;3211;53.452;-2.264;2023-09-12T08:06:28;15.70;99.90
6357;DHT22;3211;53.452;-2.264;2023-09-12T08:09:11;15.70;99.90
6357;DHT22;3211;53.452;-2.264;2023-09-12T08:11:53;15.80;99.90
6357;DHT22;3211;53.452;-2.264;2023-09-12T08:14:36;15.80;99.90
6357;DHT22;3211;53.452;-2.264;2023-09-12T08:17:19;15.70;99.90
6357;DHT22;3211;53.452;-2.264;2023-09-12T08:20:01;15.80;99.90
6357;DHT22;3211;53.452;-2.264;2023-09-12T08:22:43;15.90;99.90
6357;DHT22;3211;53.452;-2.264;2023-09-12T08:25:25;16.00;99.90
6357;DHT22;3211;53.452;-2.264;2023-09-12T08:28:07;16.00;99.90
6357;DHT22;3211;53.452;-2.264;2023-09-12T08:30:51;16.00;99.90
6357;DHT22;3211;53.452;-2.264;2023-09-12T08:33:33;16.10;99.90
6357;DHT22;3211;53.452;-2.264;2023-09-12T08:36:15;16.10;99.90
6357;DHT22;3211;53.452;-2.264;2023-09-12T08:38:57;16.00;99.90
6357;DHT22;3211;53.452;-2.264;2023-09-12T08:41:41;16.10;99.90
6357;DHT22;3211;53.452;-2.264;2023-09-12T08:44:23;16.10;99.90
6357;DHT22;3211;53.452;-2.264;2023-09-12T08:47:08;16.10;99.90
6357;DHT22;3211;53.452;-2.264;2023-09-12T08:49:51;16.10;99.90
6357;DHT22;3211;53.452;-2.264;2023-09-12T08:52:33;16.10;99.90
6357;DHT22;3211;53.452;-2.264;2023-09-12T08:55:15;16.10;99.90
6357;DHT22;3211;53.452;-2.264;2023-09-12T08:57:57;16.00;99.90
6357;DHT22;3211;53.452;-2.264;2023-09-12T09:00:42;16.00;99.90
6357;DHT22;3211;53.452;-2.264;2023-09-12T09:03:25;16.00;99.90
6357;DHT22;3211;53.452;-2.264;2023-09-12T09:06:08;16.10;99.90
6357;DHT22;3211;53.452;-2.264;2023-09-12T09:08:50;16.10;99.90
6357;DHT22;3211;53.452;-2.264;2023-09-12T09:11:32;16.10;99.90
6357;DHT22;3211;53.452;-2.264;2023-09-12T09:14:15;16.10;99.90
6357;DHT22;3211;53.452;-2.264;2023-09-12T09:16:58;16.10;99.90
6357;DHT22;3211;53.452;-2.264;2023-09-12T09:19:42;16.00;99.90
6357;DHT22;3211;53.452;-2.264;2023-09-12T09:22:24;16.10;99.90
6357;DHT22;3211;53.452;-2.264;2023-09-12T09:25:10;16.20;99.90
6357;DHT22;3211;53.452;-2.264;2023-09-12T09:27:53;16.10;99.90
6357;DHT22;3211;53.452;-2.264;2023-09-12T09:30:42;16.20;99.90
6357;DHT22;3211;53.452;-2.264;2023-09-12T09:33:25;16.20;99.90
6357;DHT22;3211;53.452;-2.264;2023-09-12T09:36:10;16.30;99.90
6357;DHT22;3211;53.452;-2.264;2023-09-12T09:38:52;16.30;99.90
6357;DHT22;3211;53.452;-2.264;2023-09-12T09:41:36;16.30;99.90
6357;DHT22;3211;53.452;-2.264;2023-09-12T09:44:20;16.30;99.90
6357;DHT22;3211;53.452;-2.264;2023-09-12T09:47:03;16.40;99.90
6357;DHT22;3211;53.452;-2.264;2023-09-12T09:49:45;16.30;99.90
6357;DHT22;3211;53.452;-2.264;2023-09-12T09:52:29;16.40;99.90
6357;DHT22;3211;53.452;-2.264;2023-09-12T09:55:13;16.40;99.90
6357;DHT22;3211;53.452;-2.264;2023-09-12T09:57:55;16.50;99.90
6357;DHT22;3211;53.452;-2.264;2023-09-12T10:00:38;16.50;99.90
6357;DHT22;3211;53.452;-2.264;2023-09-12T10:03:22;16.70;99.90
6357;DHT22;3211;53.452;-2.264;2023-09-12T10:06:05;16.70;99.90
6357;DHT22;3211;53.452;-2.264;2023-09-12T10:08:51;16.60;99.90
6357;DHT22;3211;53.452;-2.264;2023-09-12T10:11:35;16.70;99.90
6357;DHT22;3211;53.452;-2.264;2023-09-12T10:14:20;16.70;99.90
6357;DHT22;3211;53.452;-2.264;2023-09-12T10:17:02;16.70;99.90
6357;DHT22;3211;53.452;-2.264;2023-09-12T10:19:53;16.80;99.90
6357;DHT22;3211;53.452;-2.264;2023-09-12T10:22:40;16.90;99.90
6357;DHT22;3211;53.452;-2.264;2023-09-12T10:25:24;16.80;91.50
6357;DHT22;3211;53.452;-2.264;2023-09-12T10:28:07;16.80;99.90
6357;DHT22;3211;53.452;-2.264;2023-09-12T10:30:49;16.80;93.40
6357;DHT22;3211;53.452;-2.264;2023-09-12T10:33:31;16.60;1.00
6357;DHT22;3211;53.452;-2.264;2023-09-12T10:36:15;16.50;99.90
6357;DHT22;3211;53.452;-2.264;2023-09-12T10:38:59;16.60;1.00
6357;DHT22;3211;53.452;-2.264;2023-09-12T10:41:43;16.70;1.00
6357;DHT22;3211;53.452;-2.264;2023-09-12T10:44:25;16.60;1.00
6357;DHT22;3211;53.452;-2.264;2023-09-12T10:47:07;16.60;1.00
6357;DHT22;3211;53.452;-2.264;2023-09-12T10:49:50;16.80;1.00
6357;DHT22;3211;53.452;-2.264;2023-09-12T10:52:32;16.90;1.00
6357;DHT22;3211;53.452;-2.264;2023-09-12T10:55:17;17.00;1.00
6357;DHT22;3211;53.452;-2.264;2023-09-12T10:58:05;17.00;1.00
6357;DHT22;3211;53.452;-2.264;2023-09-12T11:01:21;16.90;99.90
6357;DHT22;3211;53.452;-2.264;2023-09-12T11:04:31;17.00;1.00
6357;DHT22;3211;53.452;-2.264;2023-09-12T11:07:34;16.80;99.90
6357;DHT22;3211;53.452;-2.264;2023-09-12T11:10:25;16.80;99.90
6357;DHT22;3211;53.452;-2.264;2023-09-12T11:13:17;16.90;1.00
6357;DHT22;3211;53.452;-2.264;2023-09-12T11:16:12;16.90;1.00
6357;DHT22;3211;53.452;-2.264;2023-09-12T11:19:16;16.90;1.00
6357;DHT22;3211;53.452;-2.264;2023-09-12T11:21:59;17.10;5.40
6357;DHT22;3211;53.452;-2.264;2023-09-12T11:24:43;17.10;1.00
6357;DHT22;3211;53.452;-2.264;2023-09-12T11:27:32;17.20;1.00
6357;DHT22;3211;53.452;-2.264;2023-09-12T11:30:16;17.10;99.90
6357;DHT22;3211;53.452;-2.264;2023-09-12T11:32:58;17.20;99.90
6357;DHT22;3211;53.452;-2.264;2023-09-12T11:35:42;17.30;99.90
6357;DHT22;3211;53.452;-2.264;2023-09-12T11:38:27;17.30;17.00
6357;DHT22;3211;53.452;-2.264;2023-09-12T11:41:11;17.40;99.90
6357;DHT22;3211;53.452;-2.264;2023-09-12T11:43:53;17.30;99.90
6357;DHT22;3211;53.452;-2.264;2023-09-12T11:46:36;17.30;10.90
6357;DHT22;3211;53.452;-2.264;2023-09-12T11:49:19;17.20;99.90
6357;DHT22;3211;53.452;-2.264;2023-09-12T11:52:01;17.20;99.90
6357;DHT22;3211;53.452;-2.264;2023-09-12T11:54:45;17.10;99.90
6357;DHT22;3211;53.452;-2.264;2023-09-12T11:57:27;17.00;99.90
6357;DHT22;3211;53.452;-2.264;2023-09-12T12:00:11;17.00;1.00
6357;DHT22;3211;53.452;-2.264;2023-09-12T12:02:54;16.90;1.00
6357;DHT22;3211;53.452;-2.264;2023-09-12T12:05:37;16.70;1.00
6357;DHT22;3211;53.452;-2.264;2023-09-12T12:08:21;16.80;99.90
6357;DHT22;3211;53.452;-2.264;2023-09-12T12:11:02;16.90;99.90
6357;DHT22;3211;53.452;-2.264;2023-09-12T12:13:44;16.70;99.90
6357;DHT22;3211;53.452;-2.264;2023-09-12T12:16:26;16.80;90.10
6357;DHT22;3211;53.452;-2.264;2023-09-12T12:19:10;16.90;26.70
6357;DHT22;3211;53.452;-2.264;2023-09-12T12:21:53;16.70;1.00
6357;DHT22;3211;53.452;-2.264;2023-09-12T12:24:39;16.80;99.90
6357;DHT22;3211;53.452;-2.264;2023-09-12T12:27:21;16.70;1.00
6357;DHT22;3211;53.452;-2.264;2023-09-12T12:30:05;16.80;83.90
6357;DHT22;3211;53.452;-2.264;2023-09-12T12:32:47;16.80;1.00
6357;DHT22;3211;53.452;-2.264;2023-09-12T12:35:31;16.90;38.80
6357;DHT22;3211;53.452;-2.264;2023-09-12T12:38:13;16.90;1.00
6357;DHT22;3211;53.452;-2.264;2023-09-12T12:40:56;17.00;99.90
6357;DHT22;3211;53.452;-2.264;2023-09-12T12:43:39;17.00;53.60
6357;DHT22;3211;53.452;-2.264;2023-09-12T12:46:22;16.90;99.90
6357;DHT22;3211;53.452;-2.264;2023-09-12T12:49:05;16.90;24.40
6357;DHT22;3211;53.452;-2.264;2023-09-12T12:51:49;17.10;99.90
6357;DHT22;3211;53.452;-2.264;2023-09-12T12:54:31;17.10;1.00
6357;DHT22;3211;53.452;-2.264;2023-09-12T12:57:18;17.00;99.90
6357;DHT22;3211;53.452;-2.264;2023-09-12T13:00:00;17.20;1.00
6357;DHT22;3211;53.452;-2.264;2023-09-12T13:02:45;17.10;45.40
6357;DHT22;3211;53.452;-2.264;2023-09-12T13:05:28;17.00;99.90
6357;DHT22;3211;53.452;-2.264;2023-09-12T13:08:12;17.10;99.90
6357;DHT22;3211;53.452;-2.264;2023-09-12T13:10:54;17.20;99.90
6357;DHT22;3211;53.452;-2.264;2023-09-12T13:13:37;17.30;99.90
6357;DHT22;3211;53.452;-2.264;2023-09-12T13:16:19;17.50;99.90
6357;DHT22;3211;53.452;-2.264;2023-09-12T13:19:01;17.30;99.90
6357;DHT22;3211;53.452;-2.264;2023-09-12T13:21:43;17.30;99.90
6357;DHT22;3211;53.452;-2.264;2023-09-12T13:24:26;17.20;99.90
6357;DHT22;3211;53.452;-2.264;2023-09-12T13:27:08;17.10;56.60
6357;DHT22;3211;53.452;-2.264;2023-09-12T13:29:50;17.20;99.90
6357;DHT22;3211;53.452;-2.264;2023-09-12T13:32:32;17.20;1.00
6357;DHT22;3211;53.452;-2.264;2023-09-12T13:35:14;17.20;60.90
6357;DHT22;3211;53.452;-2.264;2023-09-12T13:37:57;17.20;99.90
6357;DHT22;3211;53.452;-2.264;2023-09-12T13:40:41;17.20;1.00
6357;DHT22;3211;53.452;-2.264;2023-09-12T13:43:23;17.10;99.90
6357;DHT22;3211;53.452;-2.264;2023-09-12T13:46:05;17.00;73.90
6357;DHT22;3211;53.452;-2.264;2023-09-12T13:48:50;16.90;4.20
6357;DHT22;3211;53.452;-2.264;2023-09-12T13:51:32;17.00;99.90
6357;DHT22;3211;53.452;-2.264;2023-09-12T13:54:13;16.90;99.90
6357;DHT22;3211;53.452;-2.264;2023-09-12T13:56:57;17.00;1.00
6357;DHT22;3211;53.452;-2.264;2023-09-12T13:59:39;16.80;78.90
6357;DHT22;3211;53.452;-2.264;2023-09-12T14:02:21;16.80;99.90
6357;DHT22;3211;53.452;-2.264;2023-09-12T14:05:03;16.80;99.90
6357;DHT22;3211;53.452;-2.264;2023-09-12T14:07:45;16.80;1.00
6357;DHT22;3211;53.452;-2.264;2023-09-12T14:10:27;16.90;99.90
6357;DHT22;3211;53.452;-2.264;2023-09-12T14:13:10;17.00;99.90
6357;DHT22;3211;53.452;-2.264;2023-09-12T14:15:52;17.10;1.00
6357;DHT22;3211;53.452;-2.264;2023-09-12T14:18:34;17.10;99.90
6357;DHT22;3211;53.452;-2.264;2023-09-12T14:21:17;17.20;99.90
6357;DHT22;3211;53.452;-2.264;2023-09-12T14:23:59;17.10;99.90
6357;DHT22;3211;53.452;-2.264;2023-09-12T14:26:41;17.10;99.90
6357;DHT22;3211;53.452;-2.264;2023-09-12T14:29:24;17.20;1.00
6357;DHT22;3211;53.452;-2.264;2023-09-12T14:32:09;17.30;99.90
6357;DHT22;3211;53.452;-2.264;2023-09-12T14:34:51;17.20;1.00
6357;DHT22;3211;53.452;-2.264;2023-09-12T14:37:32;17.30;99.90
6357;DHT22;3211;53.452;-2.264;2023-09-12T14:40:14;17.20;1.00
6357;DHT22;3211;53.452;-2.264;2023-09-12T14:42:57;17.20;1.00
6357;DHT22;3211;53.452;-2.264;2023-09-12T14:45:41;17.20;99.90
6357;DHT22;3211;53.452;-2.264;2023-09-12T14:48:22;17.20;99.90
6357;DHT22;3211;53.452;-2.264;2023-09-12T14:51:04;17.30;1.00
6357;DHT22;3211;53.452;-2.264;2023-09-12T14:53:47;17.20;99.90
6357;DHT22;3211;53.452;-2.264;2023-09-12T14:56:29;17.20;99.90
6357;DHT22;3211;53.452;-2.264;2023-09-12T14:59:11;17.30;1.00
6357;DHT22;3211;53.452;-2.264;2023-09-12T15:01:55;17.20;99.90
6357;DHT22;3211;53.452;-2.264;2023-09-12T15:04:37;17.30;99.90
6357;DHT22;3211;53.452;-2.264;2023-09-12T15:07:19;17.20;99.90
6357;DHT22;3211;53.452;-2.264;2023-09-12T15:10:01;17.20;1.00
6357;DHT22;3211;53.452;-2.264;2023-09-12T15:12:43;17.10;99.90
6357;DHT22;3211;53.452;-2.264;2023-09-12T15:15:24;17.00;1.00
6357;DHT22;3211;53.452;-2.264;2023-09-12T15:18:08;16.90;99.90
6357;DHT22;3211;53.452;-2.264;2023-09-12T15:20:51;16.70;1.00
6357;DHT22;3211;53.452;-2.264;2023-09-12T15:23:33;16.60;1.00
6357;DHT22;3211;53.452;-2.264;2023-09-12T15:26:15;16.60;1.00
6357;DHT22;3211;53.452;-2.264;2023-09-12T15:28:57;16.60;99.90
6357;DHT22;3211;53.452;-2.264;2023-09-12T15:31:41;16.70;1.00
6357;DHT22;3211;53.452;-2.264;2023-09-12T15:34:25;16.80;66.80
6357;DHT22;3211;53.452;-2.264;2023-09-12T15:37:08;17.00;1.00
6357;DHT22;3211;53.452;-2.264;2023-09-12T15:39:50;17.10;64.80
6357;DHT22;3211;53.452;-2.264;2023-09-12T15:42:32;17.20;99.90
6357;DHT22;3211;53.452;-2.264;2023-09-12T15:45:14;17.50;99.90
6357;DHT22;3211;53.452;-2.264;2023-09-12T15:47:58;17.60;99.90
6357;DHT22;3211;53.452;-2.264;2023-09-12T15:50:41;17.60;99.90
6357;DHT22;3211;53.452;-2.264;2023-09-12T15:53:24;17.50;84.20
6357;DHT22;3211;53.452;-2.264;2023-09-12T15:56:06;17.30;99.90
6357;DHT22;3211;53.452;-2.264;2023-09-12T15:58:48;17.20;1.00
6357;DHT22;3211;53.452;-2.264;2023-09-12T16:01:30;17.10;1.00
6357;DHT22;3211;53.452;-2.264;2023-09-12T16:04:12;17.00;1.00
6357;DHT22;3211;53.452;-2.264;2023-09-12T16:06:55;17.00;1.00
6357;DHT22;3211;53.452;-2.264;2023-09-12T16:09:38;17.00;99.90
6357;DHT22;3211;53.452;-2.264;2023-09-12T16:12:19;16.80;25.40
6357;DHT22;3211;53.452;-2.264;2023-09-12T16:15:02;16.80;99.90
6357;DHT22;3211;53.452;-2.264;2023-09-12T16:17:44;16.70;1.00
6357;DHT22;3211;53.452;-2.264;2023-09-12T16:20:26;16.60;99.90
6357;DHT22;3211;53.452;-2.264;2023-09-12T16:23:09;16.50;99.90
6357;DHT22;3211;53.452;-2.264;2023-09-12T16:25:51;16.40;1.00
6357;DHT22;3211;53.452;-2.264;2023-09-12T16:28:33;16.50;1.00
6357;DHT22;3211;53.452;-2.264;2023-09-12T16:31:15;16.50;73.30
6357;DHT22;3211;53.452;-2.264;2023-09-12T16:33:57;16.50;1.00
6357;DHT22;3211;53.452;-2.264;2023-09-12T16:36:39;16.50;66.50
6357;DHT22;3211;53.452;-2.264;2023-09-12T16:39:22;16.50;99.90
6357;DHT22;3211;53.452;-2.264;2023-09-12T16:42:05;16.70;76.50
6357;DHT22;3211;53.452;-2.264;2023-09-12T16:44:47;16.70;99.90
6357;DHT22;3211;53.452;-2.264;2023-09-12T16:47:29;16.60;99.90
6357;DHT22;3211;53.452;-2.264;2023-09-12T16:50:11;16.60;99.90
6357;DHT22;3211;53.452;-2.264;2023-09-12T16:52:53;16.70;99.90
6357;DHT22;3211;53.452;-2.264;2023-09-12T16:55:36;16.60;1.00
6357;DHT22;3211;53.452;-2.264;2023-09-12T16:58:18;16.40;1.00
6357;DHT22;3211;53.452;-2.264;2023-09-12T17:01:00;16.50;38.00
6357;DHT22;3211;53.452;-2.264;2023-09-12T17:03:43;16.50;1.00
6357;DHT22;3211;53.452;-2.264;2023-09-12T17:06:25;16.50;99.90
6357;DHT22;3211;53.452;-2.264;2023-09-12T17:09:10;16.40;99.90
6357;DHT22;3211;53.452;-2.264;2023-09-12T17:11:53;16.30;99.90
6357;DHT22;3211;53.452;-2.264;2023-09-12T17:14:35;16.20;1.00
6357;DHT22;3211;53.452;-2.264;2023-09-12T17:17:17;16.00;1.00
6357;DHT22;3211;53.452;-2.264;2023-09-12T17:19:59;16.00;1.00
6357;DHT22;3211;53.452;-2.264;2023-09-12T17:22:41;16.00;99.90
6357;DHT22;3211;53.452;-2.264;2023-09-12T17:25:23;16.00;99.90
6357;DHT22;3211;53.452;-2.264;2023-09-12T17:28:06;16.20;1.00